sensor_id;sensor_type;location;lat;lon;timestamp;P1;durP1;ratioP1;P2;durP2;ratioP2
75261;SDS011;63859;51.064;4.580;2023-02-03T00:00:45;10.80;;;3.47;;
75261;SDS011;63859;51.064;4.580;2023-02-03T00:03:11;8.53;;;3.70;;
75261;SDS011;63859;51.064;4.580;2023-02-03T00:05:37;14.07;;;3.50;;
75261;SDS011;63859;51.064;4.580;2023-02-03T00:08:03;10.27;;;4.70;;
75261;SDS011;63859;51.064;4.580;2023-02-03T00:10:32;11.30;;;3.50;;
75261;SDS011;63859;51.064;4.580;2023-02-03T00:12:59;10.67;;;3.50;;
75261;SDS011;63859;51.064;4.580;2023-02-03T00:15:25;15.07;;;4.07;;
75261;SDS011;63859;51.064;4.580;2023-02-03T00:17:51;19.67;;;4.47;;
75261;SDS011;63859;51.064;4.580;2023-02-03T00:20:17;10.33;;;3.40;;
75261;SDS011;63859;51.064;4.580;2023-02-03T00:22:42;8.57;;;3.70;;
75261;SDS011;63859;51.064;4.580;2023-02-03T00:25:08;14.73;;;5.10;;
75261;SDS011;63859;51.064;4.580;2023-02-03T00:27:34;13.20;;;4.10;;
75261;SDS011;63859;51.064;4.580;2023-02-03T00:29:59;9.47;;;4.43;;
75261;SDS011;63859;51.064;4.580;2023-02-03T00:32:25;13.97;;;4.57;;
75261;SDS011;63859;51.064;4.580;2023-02-03T00:34:51;12.10;;;4.53;;
75261;SDS011;63859;51.064;4.580;2023-02-03T00:37:16;15.00;;;4.60;;
75261;SDS011;63859;51.064;4.580;2023-02-03T00:39:42;11.27;;;4.50;;
75261;SDS011;63859;51.064;4.580;2023-02-03T00:42:08;12.27;;;4.10;;
75261;SDS011;63859;51.064;4.580;2023-02-03T00:44:33;11.23;;;4.30;;
75261;SDS011;63859;51.064;4.580;2023-02-03T00:47:00;17.17;;;4.43;;
75261;SDS011;63859;51.064;4.580;2023-02-03T00:49:25;10.60;;;4.10;;
75261;SDS011;63859;51.064;4.580;2023-02-03T00:51:51;9.00;;;3.57;;
75261;SDS011;63859;51.064;4.580;2023-02-03T00:54:17;12.20;;;3.93;;
75261;SDS011;63859;51.064;4.580;2023-02-03T00:56:43;14.23;;;4.23;;
75261;SDS011;63859;51.064;4.580;2023-02-03T00:59:08;11.97;;;3.83;;
75261;SDS011;63859;51.064;4.580;2023-02-03T01:01:34;7.93;;;3.80;;
75261;SDS011;63859;51.064;4.580;2023-02-03T01:04:00;12.27;;;3.60;;
75261;SDS011;63859;51.064;4.580;2023-02-03T01:06:26;11.40;;;3.30;;
75261;SDS011;63859;51.064;4.580;2023-02-03T01:08:52;13.27;;;3.67;;
75261;SDS011;63859;51.064;4.580;2023-02-03T01:11:19;9.30;;;3.27;;
75261;SDS011;63859;51.064;4.580;2023-02-03T01:13:46;10.87;;;3.20;;
75261;SDS011;63859;51.064;4.580;2023-02-03T01:16:14;17.60;;;3.20;;
75261;SDS011;63859;51.064;4.580;2023-02-03T01:18:41;15.10;;;4.00;;
75261;SDS011;63859;51.064;4.580;2023-02-03T01:21:12;11.77;;;3.00;;
75261;SDS011;63859;51.064;4.580;2023-02-03T01:23:40;10.03;;;3.37;;
75261;SDS011;63859;51.064;4.580;2023-02-03T01:26:11;11.97;;;3.47;;
75261;SDS011;63859;51.064;4.580;2023-02-03T01:28:42;13.27;;;3.07;;
75261;SDS011;63859;51.064;4.580;2023-02-03T01:31:11;15.57;;;3.40;;
75261;SDS011;63859;51.064;4.580;2023-02-03T01:33:59;9.43;;;3.03;;
75261;SDS011;63859;51.064;4.580;2023-02-03T01:36:25;16.17;;;3.17;;
75261;SDS011;63859;51.064;4.580;2023-02-03T01:38:52;12.07;;;3.50;;
75261;SDS011;63859;51.064;4.580;2023-02-03T01:41:20;12.00;;;3.10;;
75261;SDS011;63859;51.064;4.580;2023-02-03T01:43:54;6.33;;;2.43;;
75261;SDS011;63859;51.064;4.580;2023-02-03T01:46:32;18.63;;;3.43;;
75261;SDS011;63859;51.064;4.580;2023-02-03T01:51:31;13.60;;;3.10;;
75261;SDS011;63859;51.064;4.580;2023-02-03T01:53:57;15.20;;;3.70;;
75261;SDS011;63859;51.064;4.580;2023-02-03T01:56:24;8.63;;;2.77;;
75261;SDS011;63859;51.064;4.580;2023-02-03T01:58:54;11.77;;;2.60;;
75261;SDS011;63859;51.064;4.580;2023-02-03T02:01:20;13.67;;;2.80;;
75261;SDS011;63859;51.064;4.580;2023-02-03T02:03:47;14.87;;;3.40;;
75261;SDS011;63859;51.064;4.580;2023-02-03T02:06:16;11.50;;;2.77;;
75261;SDS011;63859;51.064;4.580;2023-02-03T02:08:43;14.60;;;3.20;;
75261;SDS011;63859;51.064;4.580;2023-02-03T02:11:11;16.03;;;2.90;;
75261;SDS011;63859;51.064;4.580;2023-02-03T02:13:37;10.73;;;2.47;;
75261;SDS011;63859;51.064;4.580;2023-02-03T02:25:13;6.87;;;2.83;;
75261;SDS011;63859;51.064;4.580;2023-02-03T02:28:05;9.33;;;3.47;;
75261;SDS011;63859;51.064;4.580;2023-02-03T02:36:29;13.73;;;3.07;;
75261;SDS011;63859;51.064;4.580;2023-02-03T02:39:09;9.00;;;2.23;;
75261;SDS011;63859;51.064;4.580;2023-02-03T02:41:52;11.23;;;2.50;;
75261;SDS011;63859;51.064;4.580;2023-02-03T02:44:23;5.73;;;2.40;;
75261;SDS011;63859;51.064;4.580;2023-02-03T02:46:58;12.60;;;2.30;;
75261;SDS011;63859;51.064;4.580;2023-02-03T02:49:34;9.20;;;2.63;;
75261;SDS011;63859;51.064;4.580;2023-02-03T02:52:07;10.27;;;2.60;;
75261;SDS011;63859;51.064;4.580;2023-02-03T02:54:34;6.50;;;2.60;;
75261;SDS011;63859;51.064;4.580;2023-02-03T02:57:04;9.33;;;2.27;;
75261;SDS011;63859;51.064;4.580;2023-02-03T02:59:33;10.03;;;2.47;;
75261;SDS011;63859;51.064;4.580;2023-02-03T03:01:59;5.83;;;2.23;;
75261;SDS011;63859;51.064;4.580;2023-02-03T03:04:26;9.80;;;2.70;;
75261;SDS011;63859;51.064;4.580;2023-02-03T03:15:06;10.47;;;2.90;;
75261;SDS011;63859;51.064;4.580;2023-02-03T03:17:37;6.93;;;1.93;;
75261;SDS011;63859;51.064;4.580;2023-02-03T03:20:07;10.93;;;2.30;;
75261;SDS011;63859;51.064;4.580;2023-02-03T03:22:43;11.00;;;2.20;;
75261;SDS011;63859;51.064;4.580;2023-02-03T03:25:16;12.10;;;2.80;;
75261;SDS011;63859;51.064;4.580;2023-02-03T03:27:49;13.37;;;2.70;;
75261;SDS011;63859;51.064;4.580;2023-02-03T03:30:22;6.00;;;2.27;;
75261;SDS011;63859;51.064;4.580;2023-02-03T03:32:52;11.30;;;3.10;;
75261;SDS011;63859;51.064;4.580;2023-02-03T03:35:18;7.30;;;2.60;;
75261;SDS011;63859;51.064;4.580;2023-02-03T03:37:53;6.43;;;1.80;;
75261;SDS011;63859;51.064;4.580;2023-02-03T03:40:43;14.23;;;2.43;;
75261;SDS011;63859;51.064;4.580;2023-02-03T03:43:18;9.70;;;2.27;;
75261;SDS011;63859;51.064;4.580;2023-02-03T03:45:58;7.03;;;1.97;;
75261;SDS011;63859;51.064;4.580;2023-02-03T03:48:33;9.57;;;2.10;;
75261;SDS011;63859;51.064;4.580;2023-02-03T03:51:05;5.83;;;1.73;;
75261;SDS011;63859;51.064;4.580;2023-02-03T03:53:36;9.13;;;2.03;;
75261;SDS011;63859;51.064;4.580;2023-02-03T03:56:05;10.70;;;2.47;;
75261;SDS011;63859;51.064;4.580;2023-02-03T03:58:33;5.80;;;2.07;;
75261;SDS011;63859;51.064;4.580;2023-02-03T04:01:03;13.50;;;2.40;;
75261;SDS011;63859;51.064;4.580;2023-02-03T04:03:36;7.50;;;2.20;;
75261;SDS011;63859;51.064;4.580;2023-02-03T04:06:05;12.83;;;2.67;;
75261;SDS011;63859;51.064;4.580;2023-02-03T04:08:31;10.53;;;2.57;;
75261;SDS011;63859;51.064;4.580;2023-02-03T04:10:57;9.63;;;2.30;;
75261;SDS011;63859;51.064;4.580;2023-02-03T04:13:23;6.30;;;2.10;;
75261;SDS011;63859;51.064;4.580;2023-02-03T04:15:48;8.57;;;2.33;;
75261;SDS011;63859;51.064;4.580;2023-02-03T04:18:14;5.97;;;1.70;;
75261;SDS011;63859;51.064;4.580;2023-02-03T04:20:41;7.27;;;2.27;;
75261;SDS011;63859;51.064;4.580;2023-02-03T04:23:07;11.43;;;2.50;;
75261;SDS011;63859;51.064;4.580;2023-02-03T04:25:33;10.73;;;2.20;;
75261;SDS011;63859;51.064;4.580;2023-02-03T04:27:59;3.63;;;2.00;;
75261;SDS011;63859;51.064;4.580;2023-02-03T04:30:25;8.27;;;1.87;;
75261;SDS011;63859;51.064;4.580;2023-02-03T04:32:51;7.83;;;2.33;;
75261;SDS011;63859;51.064;4.580;2023-02-03T04:35:17;9.83;;;2.20;;
75261;SDS011;63859;51.064;4.580;2023-02-03T04:37:43;11.53;;;2.43;;
75261;SDS011;63859;51.064;4.580;2023-02-03T04:40:09;7.47;;;2.20;;
75261;SDS011;63859;51.064;4.580;2023-02-03T04:42:38;9.77;;;2.20;;
75261;SDS011;63859;51.064;4.580;2023-02-03T04:45:05;7.90;;;2.23;;
75261;SDS011;63859;51.064;4.580;2023-02-03T04:47:32;7.27;;;2.20;;
75261;SDS011;63859;51.064;4.580;2023-02-03T04:49:58;13.30;;;2.70;;
75261;SDS011;63859;51.064;4.580;2023-02-03T04:52:24;5.97;;;1.93;;
75261;SDS011;63859;51.064;4.580;2023-02-03T04:54:49;5.87;;;1.70;;
75261;SDS011;63859;51.064;4.580;2023-02-03T04:57:15;8.87;;;1.93;;
75261;SDS011;63859;51.064;4.580;2023-02-03T04:59:41;9.37;;;2.37;;
75261;SDS011;63859;51.064;4.580;2023-02-03T05:02:06;6.73;;;2.13;;
75261;SDS011;63859;51.064;4.580;2023-02-03T05:04:32;6.43;;;1.60;;
75261;SDS011;63859;51.064;4.580;2023-02-03T05:06:58;5.33;;;1.90;;
75261;SDS011;63859;51.064;4.580;2023-02-03T05:09:24;9.13;;;1.70;;
75261;SDS011;63859;51.064;4.580;2023-02-03T05:11:50;7.47;;;3.20;;
75261;SDS011;63859;51.064;4.580;2023-02-03T05:14:16;9.27;;;2.37;;
75261;SDS011;63859;51.064;4.580;2023-02-03T05:16:42;5.63;;;1.70;;
75261;SDS011;63859;51.064;4.580;2023-02-03T05:19:08;6.87;;;1.93;;
75261;SDS011;63859;51.064;4.580;2023-02-03T05:21:33;7.63;;;2.30;;
75261;SDS011;63859;51.064;4.580;2023-02-03T05:23:59;7.77;;;1.90;;
75261;SDS011;63859;51.064;4.580;2023-02-03T05:26:27;8.67;;;2.07;;
75261;SDS011;63859;51.064;4.580;2023-02-03T05:28:52;14.63;;;2.63;;
75261;SDS011;63859;51.064;4.580;2023-02-03T05:31:18;7.60;;;1.77;;
75261;SDS011;63859;51.064;4.580;2023-02-03T05:33:44;11.40;;;2.10;;
75261;SDS011;63859;51.064;4.580;2023-02-03T05:36:09;8.43;;;1.47;;
75261;SDS011;63859;51.064;4.580;2023-02-03T05:38:35;8.87;;;2.13;;
75261;SDS011;63859;51.064;4.580;2023-02-03T05:41:00;6.20;;;1.90;;
75261;SDS011;63859;51.064;4.580;2023-02-03T05:43:44;13.70;;;2.67;;
75261;SDS011;63859;51.064;4.580;2023-02-03T05:46:10;9.50;;;2.23;;
75261;SDS011;63859;51.064;4.580;2023-02-03T05:48:36;6.03;;;2.40;;
75261;SDS011;63859;51.064;4.580;2023-02-03T05:51:01;5.43;;;1.57;;
75261;SDS011;63859;51.064;4.580;2023-02-03T05:53:27;8.97;;;1.90;;
75261;SDS011;63859;51.064;4.580;2023-02-03T05:55:53;6.10;;;1.87;;
75261;SDS011;63859;51.064;4.580;2023-02-03T05:58:18;3.40;;;1.60;;
75261;SDS011;63859;51.064;4.580;2023-02-03T06:00:44;7.30;;;2.20;;
75261;SDS011;63859;51.064;4.580;2023-02-03T06:03:11;3.90;;;1.70;;
75261;SDS011;63859;51.064;4.580;2023-02-03T06:05:36;9.90;;;1.90;;
75261;SDS011;63859;51.064;4.580;2023-02-03T06:08:05;7.23;;;1.60;;
75261;SDS011;63859;51.064;4.580;2023-02-03T06:10:34;13.73;;;2.33;;
75261;SDS011;63859;51.064;4.580;2023-02-03T06:13:06;10.97;;;2.10;;
75261;SDS011;63859;51.064;4.580;2023-02-03T06:15:36;10.93;;;2.03;;
75261;SDS011;63859;51.064;4.580;2023-02-03T06:18:02;8.37;;;1.87;;
75261;SDS011;63859;51.064;4.580;2023-02-03T06:20:27;9.17;;;2.07;;
75261;SDS011;63859;51.064;4.580;2023-02-03T06:22:53;10.53;;;1.97;;
75261;SDS011;63859;51.064;4.580;2023-02-03T06:25:18;5.63;;;1.70;;
75261;SDS011;63859;51.064;4.580;2023-02-03T06:27:44;5.80;;;1.80;;
75261;SDS011;63859;51.064;4.580;2023-02-03T06:30:10;7.57;;;2.03;;
75261;SDS011;63859;51.064;4.580;2023-02-03T06:32:36;6.57;;;1.70;;
75261;SDS011;63859;51.064;4.580;2023-02-03T06:35:02;13.53;;;1.97;;
75261;SDS011;63859;51.064;4.580;2023-02-03T06:37:28;10.23;;;2.13;;
75261;SDS011;63859;51.064;4.580;2023-02-03T06:39:53;8.13;;;2.40;;
75261;SDS011;63859;51.064;4.580;2023-02-03T06:42:19;12.00;;;2.50;;
75261;SDS011;63859;51.064;4.580;2023-02-03T06:44:44;9.83;;;2.30;;
75261;SDS011;63859;51.064;4.580;2023-02-03T06:47:10;9.97;;;2.40;;
75261;SDS011;63859;51.064;4.580;2023-02-03T06:49:36;5.33;;;2.07;;
75261;SDS011;63859;51.064;4.580;2023-02-03T06:52:01;6.83;;;2.03;;
75261;SDS011;63859;51.064;4.580;2023-02-03T06:54:27;6.63;;;1.77;;
75261;SDS011;63859;51.064;4.580;2023-02-03T06:56:52;11.53;;;2.10;;
75261;SDS011;63859;51.064;4.580;2023-02-03T06:59:18;14.33;;;2.73;;
75261;SDS011;63859;51.064;4.580;2023-02-03T07:01:43;3.43;;;1.63;;
75261;SDS011;63859;51.064;4.580;2023-02-03T07:04:09;8.93;;;2.00;;
75261;SDS011;63859;51.064;4.580;2023-02-03T07:06:35;8.03;;;2.33;;
75261;SDS011;63859;51.064;4.580;2023-02-03T07:09:01;5.77;;;1.30;;
75261;SDS011;63859;51.064;4.580;2023-02-03T07:11:28;5.20;;;1.50;;
75261;SDS011;63859;51.064;4.580;2023-02-03T07:13:54;2.30;;;1.33;;
75261;SDS011;63859;51.064;4.580;2023-02-03T07:16:19;8.67;;;2.00;;
75261;SDS011;63859;51.064;4.580;2023-02-03T07:18:45;12.70;;;2.50;;
75261;SDS011;63859;51.064;4.580;2023-02-03T07:21:12;18.77;;;2.40;;
75261;SDS011;63859;51.064;4.580;2023-02-03T07:23:38;8.83;;;2.53;;
75261;SDS011;63859;51.064;4.580;2023-02-03T07:26:05;8.37;;;2.07;;
75261;SDS011;63859;51.064;4.580;2023-02-03T07:28:31;7.47;;;1.97;;
75261;SDS011;63859;51.064;4.580;2023-02-03T07:30:58;3.73;;;1.60;;
75261;SDS011;63859;51.064;4.580;2023-02-03T07:33:25;15.13;;;2.43;;
75261;SDS011;63859;51.064;4.580;2023-02-03T07:35:54;8.63;;;1.97;;
75261;SDS011;63859;51.064;4.580;2023-02-03T07:38:24;7.90;;;2.20;;
75261;SDS011;63859;51.064;4.580;2023-02-03T07:40:51;8.23;;;2.20;;
75261;SDS011;63859;51.064;4.580;2023-02-03T07:43:17;5.20;;;1.83;;
75261;SDS011;63859;51.064;4.580;2023-02-03T07:45:42;10.00;;;2.27;;
75261;SDS011;63859;51.064;4.580;2023-02-03T07:48:08;8.60;;;1.90;;
75261;SDS011;63859;51.064;4.580;2023-02-03T07:50:34;4.23;;;1.70;;
75261;SDS011;63859;51.064;4.580;2023-02-03T07:53:00;4.87;;;1.70;;
75261;SDS011;63859;51.064;4.580;2023-02-03T07:55:25;7.27;;;1.97;;
75261;SDS011;63859;51.064;4.580;2023-02-03T07:57:52;11.10;;;2.57;;
75261;SDS011;63859;51.064;4.580;2023-02-03T08:00:21;8.23;;;2.03;;
75261;SDS011;63859;51.064;4.580;2023-02-03T08:02:48;5.13;;;1.73;;
75261;SDS011;63859;51.064;4.580;2023-02-03T08:05:14;4.87;;;1.67;;
75261;SDS011;63859;51.064;4.580;2023-02-03T08:07:40;14.00;;;2.40;;
75261;SDS011;63859;51.064;4.580;2023-02-03T08:10:07;12.13;;;2.03;;
75261;SDS011;63859;51.064;4.580;2023-02-03T08:12:33;5.63;;;1.77;;
75261;SDS011;63859;51.064;4.580;2023-02-03T08:14:59;10.33;;;2.30;;
75261;SDS011;63859;51.064;4.580;2023-02-03T08:17:25;8.57;;;1.87;;
75261;SDS011;63859;51.064;4.580;2023-02-03T08:19:51;4.87;;;1.90;;
75261;SDS011;63859;51.064;4.580;2023-02-03T08:22:16;6.13;;;1.67;;
75261;SDS011;63859;51.064;4.580;2023-02-03T08:24:43;8.83;;;2.10;;
75261;SDS011;63859;51.064;4.580;2023-02-03T08:27:15;6.57;;;1.77;;
75261;SDS011;63859;51.064;4.580;2023-02-03T08:29:42;10.83;;;2.33;;
75261;SDS011;63859;51.064;4.580;2023-02-03T08:32:09;8.43;;;2.00;;
75261;SDS011;63859;51.064;4.580;2023-02-03T08:34:36;15.30;;;2.47;;
75261;SDS011;63859;51.064;4.580;2023-02-03T08:37:01;5.10;;;1.90;;
75261;SDS011;63859;51.064;4.580;2023-02-03T08:39:27;3.90;;;1.50;;
75261;SDS011;63859;51.064;4.580;2023-02-03T08:41:53;11.20;;;2.30;;
75261;SDS011;63859;51.064;4.580;2023-02-03T08:44:18;4.87;;;2.00;;
75261;SDS011;63859;51.064;4.580;2023-02-03T08:46:47;9.53;;;2.17;;
75261;SDS011;63859;51.064;4.580;2023-02-03T08:49:14;8.93;;;1.97;;
75261;SDS011;63859;51.064;4.580;2023-02-03T08:51:39;11.53;;;2.70;;
75261;SDS011;63859;51.064;4.580;2023-02-03T08:54:05;7.00;;;2.07;;
75261;SDS011;63859;51.064;4.580;2023-02-03T08:56:30;7.83;;;1.70;;
75261;SDS011;63859;51.064;4.580;2023-02-03T08:58:58;2.73;;;1.70;;
75261;SDS011;63859;51.064;4.580;2023-02-03T09:01:23;6.40;;;2.43;;
75261;SDS011;63859;51.064;4.580;2023-02-03T09:03:49;9.50;;;2.10;;
75261;SDS011;63859;51.064;4.580;2023-02-03T09:06:15;8.60;;;1.80;;
75261;SDS011;63859;51.064;4.580;2023-02-03T09:08:44;6.80;;;1.57;;
75261;SDS011;63859;51.064;4.580;2023-02-03T09:11:11;11.97;;;2.23;;
75261;SDS011;63859;51.064;4.580;2023-02-03T09:13:39;8.73;;;2.00;;
75261;SDS011;63859;51.064;4.580;2023-02-03T09:16:07;5.37;;;1.87;;
75261;SDS011;63859;51.064;4.580;2023-02-03T09:18:33;6.70;;;2.33;;
75261;SDS011;63859;51.064;4.580;2023-02-03T09:21:00;11.80;;;2.40;;
75261;SDS011;63859;51.064;4.580;2023-02-03T09:23:26;9.73;;;2.63;;
75261;SDS011;63859;51.064;4.580;2023-02-03T09:25:52;7.83;;;2.33;;
75261;SDS011;63859;51.064;4.580;2023-02-03T09:28:17;9.63;;;2.13;;
75261;SDS011;63859;51.064;4.580;2023-02-03T09:30:43;7.40;;;2.70;;
75261;SDS011;63859;51.064;4.580;2023-02-03T09:33:08;5.03;;;2.10;;
75261;SDS011;63859;51.064;4.580;2023-02-03T09:35:34;8.30;;;2.17;;
75261;SDS011;63859;51.064;4.580;2023-02-03T09:37:59;9.87;;;2.40;;
75261;SDS011;63859;51.064;4.580;2023-02-03T09:40:32;7.63;;;2.90;;
75261;SDS011;63859;51.064;4.580;2023-02-03T09:43:04;10.57;;;2.57;;
75261;SDS011;63859;51.064;4.580;2023-02-03T09:45:31;8.07;;;3.03;;
75261;SDS011;63859;51.064;4.580;2023-02-03T09:48:02;3.63;;;1.87;;
75261;SDS011;63859;51.064;4.580;2023-02-03T09:50:40;8.00;;;3.07;;
75261;SDS011;63859;51.064;4.580;2023-02-03T09:53:15;7.63;;;2.80;;
75261;SDS011;63859;51.064;4.580;2023-02-03T09:55:51;6.47;;;2.03;;
75261;SDS011;63859;51.064;4.580;2023-02-03T09:58:17;11.90;;;3.57;;
75261;SDS011;63859;51.064;4.580;2023-02-03T10:00:53;6.20;;;2.67;;
75261;SDS011;63859;51.064;4.580;2023-02-03T10:11:19;7.03;;;2.70;;
75261;SDS011;63859;51.064;4.580;2023-02-03T10:14:06;15.17;;;3.17;;
75261;SDS011;63859;51.064;4.580;2023-02-03T10:20:04;6.37;;;2.43;;
75261;SDS011;63859;51.064;4.580;2023-02-03T10:22:36;5.57;;;2.67;;
75261;SDS011;63859;51.064;4.580;2023-02-03T10:25:18;6.43;;;2.60;;
75261;SDS011;63859;51.064;4.580;2023-02-03T10:27:50;23.70;;;4.03;;
75261;SDS011;63859;51.064;4.580;2023-02-03T10:32:49;11.93;;;2.23;;
75261;SDS011;63859;51.064;4.580;2023-02-03T10:35:19;7.67;;;2.50;;
75261;SDS011;63859;51.064;4.580;2023-02-03T10:37:49;5.30;;;2.60;;
75261;SDS011;63859;51.064;4.580;2023-02-03T10:40:21;7.20;;;2.20;;
75261;SDS011;63859;51.064;4.580;2023-02-03T10:42:49;6.13;;;2.67;;
75261;SDS011;63859;51.064;4.580;2023-02-03T10:45:37;6.70;;;2.57;;
75261;SDS011;63859;51.064;4.580;2023-02-03T10:48:04;12.23;;;2.87;;
75261;SDS011;63859;51.064;4.580;2023-02-03T10:50:34;10.43;;;3.17;;
75261;SDS011;63859;51.064;4.580;2023-02-03T10:56:04;12.73;;;2.77;;
75261;SDS011;63859;51.064;4.580;2023-02-03T10:58:33;9.80;;;2.77;;
75261;SDS011;63859;51.064;4.580;2023-02-03T11:01:11;11.57;;;2.70;;
75261;SDS011;63859;51.064;4.580;2023-02-03T11:03:58;6.77;;;2.67;;
75261;SDS011;63859;51.064;4.580;2023-02-03T11:06:27;11.50;;;2.50;;
75261;SDS011;63859;51.064;4.580;2023-02-03T11:08:53;6.10;;;2.50;;
75261;SDS011;63859;51.064;4.580;2023-02-03T11:16:26;5.73;;;2.33;;
75261;SDS011;63859;51.064;4.580;2023-02-03T11:21:46;7.80;;;2.73;;
75261;SDS011;63859;51.064;4.580;2023-02-03T11:24:23;7.83;;;2.60;;
75261;SDS011;63859;51.064;4.580;2023-02-03T11:26:53;8.30;;;3.50;;
75261;SDS011;63859;51.064;4.580;2023-02-03T11:31:52;7.27;;;2.70;;
75261;SDS011;63859;51.064;4.580;2023-02-03T11:34:26;8.50;;;2.47;;
75261;SDS011;63859;51.064;4.580;2023-02-03T11:42:31;8.80;;;2.60;;
75261;SDS011;63859;51.064;4.580;2023-02-03T11:45:12;8.57;;;2.97;;
75261;SDS011;63859;51.064;4.580;2023-02-03T11:58:32;6.40;;;2.30;;
75261;SDS011;63859;51.064;4.580;2023-02-03T12:01:17;10.87;;;2.70;;
75261;SDS011;63859;51.064;4.580;2023-02-03T12:18:22;6.77;;;2.40;;
75261;SDS011;63859;51.064;4.580;2023-02-03T12:23:36;9.63;;;3.00;;
75261;SDS011;63859;51.064;4.580;2023-02-03T12:28:49;20.80;;;3.10;;
75261;SDS011;63859;51.064;4.580;2023-02-03T12:31:24;9.80;;;2.20;;
75261;SDS011;63859;51.064;4.580;2023-02-03T12:34:04;14.20;;;2.83;;
75261;SDS011;63859;51.064;4.580;2023-02-03T12:36:48;10.27;;;2.37;;
75261;SDS011;63859;51.064;4.580;2023-02-03T12:42:02;13.57;;;2.80;;
75261;SDS011;63859;51.064;4.580;2023-02-03T12:44:33;9.63;;;2.07;;
75261;SDS011;63859;51.064;4.580;2023-02-03T12:49:52;9.00;;;2.17;;
75261;SDS011;63859;51.064;4.580;2023-02-03T12:52:30;7.03;;;2.03;;
75261;SDS011;63859;51.064;4.580;2023-02-03T13:00:43;6.00;;;2.07;;
75261;SDS011;63859;51.064;4.580;2023-02-03T13:06:05;9.13;;;2.20;;
75261;SDS011;63859;51.064;4.580;2023-02-03T13:08:37;8.23;;;2.40;;
75261;SDS011;63859;51.064;4.580;2023-02-03T13:13:53;10.70;;;2.50;;
75261;SDS011;63859;51.064;4.580;2023-02-03T13:16:24;10.13;;;2.40;;
75261;SDS011;63859;51.064;4.580;2023-02-03T13:18:56;10.57;;;2.20;;
75261;SDS011;63859;51.064;4.580;2023-02-03T13:21:26;6.30;;;2.23;;
75261;SDS011;63859;51.064;4.580;2023-02-03T13:23:52;40.63;;;4.00;;
75261;SDS011;63859;51.064;4.580;2023-02-03T13:32:01;7.40;;;2.20;;
75261;SDS011;63859;51.064;4.580;2023-02-03T13:40:15;8.77;;;2.47;;
75261;SDS011;63859;51.064;4.580;2023-02-03T13:42:55;4.20;;;2.20;;
75261;SDS011;63859;51.064;4.580;2023-02-03T13:48:04;10.23;;;2.60;;
75261;SDS011;63859;51.064;4.580;2023-02-03T13:50:34;9.27;;;2.90;;
75261;SDS011;63859;51.064;4.580;2023-02-03T13:53:13;11.87;;;2.60;;
75261;SDS011;63859;51.064;4.580;2023-02-03T13:55:42;9.80;;;2.53;;
75261;SDS011;63859;51.064;4.580;2023-02-03T13:58:20;8.90;;;2.70;;
75261;SDS011;63859;51.064;4.580;2023-02-03T14:05:53;10.60;;;2.90;;
75261;SDS011;63859;51.064;4.580;2023-02-03T14:16:53;5.93;;;2.40;;
75261;SDS011;63859;51.064;4.580;2023-02-03T14:24:19;8.77;;;2.33;;
75261;SDS011;63859;51.064;4.580;2023-02-03T14:26:47;6.33;;;2.50;;
75261;SDS011;63859;51.064;4.580;2023-02-03T14:32:00;10.63;;;2.70;;
75261;SDS011;63859;51.064;4.580;2023-02-03T14:34:43;11.80;;;2.73;;
75261;SDS011;63859;51.064;4.580;2023-02-03T14:37:27;7.33;;;2.53;;
75261;SDS011;63859;51.064;4.580;2023-02-03T14:42:51;7.87;;;2.80;;
75261;SDS011;63859;51.064;4.580;2023-02-03T14:54:09;8.43;;;2.73;;
75261;SDS011;63859;51.064;4.580;2023-02-03T14:59:41;12.23;;;3.30;;
75261;SDS011;63859;51.064;4.580;2023-02-03T15:02:19;8.40;;;3.00;;
75261;SDS011;63859;51.064;4.580;2023-02-03T15:04:49;12.43;;;2.80;;
75261;SDS011;63859;51.064;4.580;2023-02-03T15:07:35;8.10;;;2.93;;
75261;SDS011;63859;51.064;4.580;2023-02-03T15:10:08;9.93;;;2.80;;
75261;SDS011;63859;51.064;4.580;2023-02-03T15:12:50;6.83;;;2.57;;
75261;SDS011;63859;51.064;4.580;2023-02-03T15:15:24;7.37;;;2.90;;
75261;SDS011;63859;51.064;4.580;2023-02-03T15:17:53;13.33;;;3.37;;
75261;SDS011;63859;51.064;4.580;2023-02-03T15:23:24;7.93;;;2.70;;
75261;SDS011;63859;51.064;4.580;2023-02-03T15:25:55;10.13;;;2.77;;
75261;SDS011;63859;51.064;4.580;2023-02-03T15:28:23;8.37;;;2.97;;
75261;SDS011;63859;51.064;4.580;2023-02-03T15:30:54;7.23;;;2.80;;
75261;SDS011;63859;51.064;4.580;2023-02-03T15:33:30;10.03;;;2.50;;
75261;SDS011;63859;51.064;4.580;2023-02-03T15:36:06;9.60;;;2.70;;
75261;SDS011;63859;51.064;4.580;2023-02-03T15:38:40;12.47;;;3.10;;
75261;SDS011;63859;51.064;4.580;2023-02-03T15:41:15;8.83;;;2.80;;
75261;SDS011;63859;51.064;4.580;2023-02-03T15:43:50;6.17;;;3.03;;
75261;SDS011;63859;51.064;4.580;2023-02-03T15:46:26;5.87;;;2.40;;
75261;SDS011;63859;51.064;4.580;2023-02-03T15:49:02;8.83;;;2.77;;
75261;SDS011;63859;51.064;4.580;2023-02-03T15:51:48;6.83;;;2.60;;
75261;SDS011;63859;51.064;4.580;2023-02-03T15:54:20;10.23;;;2.93;;
75261;SDS011;63859;51.064;4.580;2023-02-03T16:02:05;9.50;;;3.37;;
75261;SDS011;63859;51.064;4.580;2023-02-03T16:04:36;6.80;;;3.37;;
75261;SDS011;63859;51.064;4.580;2023-02-03T16:07:02;9.33;;;2.70;;
75261;SDS011;63859;51.064;4.580;2023-02-03T16:09:31;10.60;;;3.27;;
75261;SDS011;63859;51.064;4.580;2023-02-03T16:14:39;8.33;;;3.10;;
75261;SDS011;63859;51.064;4.580;2023-02-03T16:17:13;6.87;;;3.00;;
75261;SDS011;63859;51.064;4.580;2023-02-03T16:19:47;7.13;;;3.03;;
75261;SDS011;63859;51.064;4.580;2023-02-03T16:22:25;5.50;;;2.77;;
75261;SDS011;63859;51.064;4.580;2023-02-03T16:24:56;9.53;;;2.63;;
75261;SDS011;63859;51.064;4.580;2023-02-03T16:27:36;11.20;;;3.43;;
75261;SDS011;63859;51.064;4.580;2023-02-03T16:33:03;6.43;;;2.87;;
75261;SDS011;63859;51.064;4.580;2023-02-03T16:35:51;11.57;;;3.07;;
75261;SDS011;63859;51.064;4.580;2023-02-03T16:38:36;8.50;;;2.97;;
75261;SDS011;63859;51.064;4.580;2023-02-03T16:41:20;11.70;;;3.33;;
75261;SDS011;63859;51.064;4.580;2023-02-03T16:44:04;7.13;;;2.60;;
75261;SDS011;63859;51.064;4.580;2023-02-03T16:46:51;6.80;;;2.80;;
75261;SDS011;63859;51.064;4.580;2023-02-03T16:49:35;6.53;;;3.00;;
75261;SDS011;63859;51.064;4.580;2023-02-03T16:52:20;12.23;;;3.70;;
75261;SDS011;63859;51.064;4.580;2023-02-03T16:54:45;7.40;;;2.80;;
75261;SDS011;63859;51.064;4.580;2023-02-03T16:57:11;7.83;;;2.70;;
75261;SDS011;63859;51.064;4.580;2023-02-03T16:59:36;8.17;;;3.10;;
75261;SDS011;63859;51.064;4.580;2023-02-03T17:02:02;11.47;;;3.13;;
75261;SDS011;63859;51.064;4.580;2023-02-03T17:04:27;7.00;;;2.93;;
75261;SDS011;63859;51.064;4.580;2023-02-03T17:06:53;9.33;;;3.47;;
75261;SDS011;63859;51.064;4.580;2023-02-03T17:09:18;6.43;;;2.80;;
75261;SDS011;63859;51.064;4.580;2023-02-03T17:11:47;9.70;;;3.53;;
75261;SDS011;63859;51.064;4.580;2023-02-03T17:14:13;7.80;;;3.47;;
75261;SDS011;63859;51.064;4.580;2023-02-03T17:16:39;9.53;;;3.70;;
75261;SDS011;63859;51.064;4.580;2023-02-03T17:19:05;11.10;;;3.30;;
75261;SDS011;63859;51.064;4.580;2023-02-03T17:21:33;13.97;;;4.07;;
75261;SDS011;63859;51.064;4.580;2023-02-03T17:23:59;7.77;;;2.80;;
75261;SDS011;63859;51.064;4.580;2023-02-03T17:26:25;8.60;;;3.00;;
75261;SDS011;63859;51.064;4.580;2023-02-03T17:28:50;11.10;;;3.70;;
75261;SDS011;63859;51.064;4.580;2023-02-03T17:31:17;7.93;;;3.13;;
75261;SDS011;63859;51.064;4.580;2023-02-03T17:33:44;17.67;;;3.50;;
75261;SDS011;63859;51.064;4.580;2023-02-03T17:36:11;9.67;;;3.50;;
75261;SDS011;63859;51.064;4.580;2023-02-03T17:38:39;12.33;;;4.23;;
75261;SDS011;63859;51.064;4.580;2023-02-03T17:41:10;11.27;;;4.67;;
75261;SDS011;63859;51.064;4.580;2023-02-03T17:43:44;11.93;;;4.40;;
75261;SDS011;63859;51.064;4.580;2023-02-03T17:46:12;14.23;;;4.60;;